Terminal Aerodrome Forecast
Issued by NWS

Current Version | Previous Version | Text Only | Print | Product List | Glossary On
Versions: 1 2 3 4 5 6 7 8 9 10 11 12
392
FTUS46 KSGX 061141
TAFTRM
TAF
KTRM 061141Z 0612/0712 VRB05KT P6SM SCT200
     FM070300 32012KT P6SM SCT200=

USA.gov is the U.S. government's official web portal to all federal, state and local government web resources and services.